Time;durP1;ratioP1;P1;durP2;ratioP2;P2;SDS_P1;SDS_P2;PMS_P1;PMS_P2;Temp;Humidity;BMP_temperature;BMP_pressure;BME280_temperature;BME280_humidity;BME280_pressure;Samples;Min_cycle;Max_cycle;Signal;HPM_P1;HPM_P2
2023/05/15 00:02:18;;;;;;;74.78;14.48;;;;;;;;;;4992791;28;20035;-41
2023/05/15 00:04:45;;;;;;;77.95;13.35;;;;;;;;;;4990123;28;20026;-38
2023/05/15 00:07:13;;;;;;;73.30;12.75;;;;;;;;;;4975891;28;20042;-37
2023/05/15 00:09:40;;;;;;;69.45;13.35;;;;;;;;;;4974792;28;20489;-36
2023/05/15 00:12:07;;;;;;;71.38;14.32;;;;;;;;;;4974836;28;20122;-36
2023/05/15 00:14:34;;;;;;;76.25;12.35;;;;;;;;;;4974438;28;20543;-43
2023/05/15 00:17:01;;;;;;;56.08;12.35;;;;;;;;;;4974238;28;20034;-42
2023/05/15 00:19:28;;;;;;;75.70;12.98;;;;;;;;;;4973816;28;20125;-36
2023/05/15 00:21:55;;;;;;;62.03;14.15;;;;;;;;;;4986873;28;20034;-35
2023/05/15 00:24:22;;;;;;;61.80;13.38;;;;;;;;;;4981189;28;20045;-39
2023/05/15 00:26:49;;;;;;;62.85;13.65;;;;;;;;;;4978544;28;20086;-37
2023/05/15 00:29:16;;;;;;;60.00;12.55;;;;;;;;;;4988970;28;20034;-41
2023/05/15 00:31:43;;;;;;;117.95;20.15;;;;;;;;;;4980933;28;20042;-39
2023/05/15 00:34:10;;;;;;;87.30;18.10;;;;;;;;;;4978032;28;20031;-41
2023/05/15 00:36:37;;;;;;;80.07;15.23;;;;;;;;;;4988714;28;20038;-36
2023/05/15 00:39:05;;;;;;;73.75;14.48;;;;;;;;;;4992908;28;20038;-38
2023/05/15 00:41:32;;;;;;;78.53;14.63;;;;;;;;;;4992428;28;20034;-38
2023/05/15 00:44:00;;;;;;;69.57;14.27;;;;;;;;;;4983192;28;20555;-40
2023/05/15 00:46:27;;;;;;;59.17;12.57;;;;;;;;;;4991629;28;20026;-35
2023/05/15 00:48:56;;;;;;;77.40;13.98;;;;;;;;;;4992654;28;20117;-40
2023/05/15 00:51:23;;;;;;;77.32;14.90;;;;;;;;;;4992441;28;20097;-36
2023/05/15 00:53:51;;;;;;;72.72;13.68;;;;;;;;;;4992607;28;20041;-35
2023/05/15 00:56:18;;;;;;;76.55;14.85;;;;;;;;;;4992297;28;20053;-36
2023/05/15 00:58:50;;;;;;;65.05;14.13;;;;;;;;;;4991861;28;20467;-35
2023/05/15 01:01:17;;;;;;;62.17;16.00;;;;;;;;;;4992284;28;20031;-39
2023/05/15 01:03:44;;;;;;;75.25;16.15;;;;;;;;;;5009852;23;20056;-42
2023/05/15 01:06:12;;;;;;;77.82;17.42;;;;;;;;;;5002253;28;20042;-39
2023/05/15 01:08:45;;;;;;;67.55;15.18;;;;;;;;;;4991735;28;20483;-39
2023/05/15 01:11:13;;;;;;;80.10;18.13;;;;;;;;;;4991615;28;20032;-41
2023/05/15 01:13:40;;;;;;;72.70;17.67;;;;;;;;;;4991140;28;20153;-41
2023/05/15 01:16:08;;;;;;;79.13;16.70;;;;;;;;;;4991907;28;20038;-41
2023/05/15 01:18:35;;;;;;;70.95;17.33;;;;;;;;;;4992295;28;20038;-39
2023/05/15 01:21:02;;;;;;;75.45;19.25;;;;;;;;;;4992460;28;20037;-39
2023/05/15 01:24:01;;;;;;;79.25;18.17;;;;;;;;;;4991982;28;20479;-39
2023/05/15 01:26:34;;;;;;;74.25;18.88;;;;;;;;;;4977701;28;20034;-42
2023/05/15 01:29:04;;;;;;;74.90;17.23;;;;;;;;;;5011673;28;20052;-41
2023/05/15 01:31:34;;;;;;;81.28;18.27;;;;;;;;;;5009384;28;20037;-41
2023/05/15 01:34:03;;;;;;;74.03;17.25;;;;;;;;;;5001934;28;20029;-39
2023/05/15 01:36:38;;;;;;;70.53;17.60;;;;;;;;;;5009759;28;20053;-41
2023/05/15 01:39:05;;;;;;;64.93;16.30;;;;;;;;;;4999834;28;20042;-39
2023/05/15 01:41:32;;;;;;;69.47;18.38;;;;;;;;;;5002458;28;20030;-41
2023/05/15 01:44:02;;;;;;;75.32;17.35;;;;;;;;;;5007180;28;20026;-41
2023/05/15 01:46:31;;;;;;;65.45;17.25;;;;;;;;;;5003142;28;20038;-41
2023/05/15 01:48:58;;;;;;;53.30;12.00;;;;;;;;;;5008508;28;20388;-42
2023/05/15 01:51:26;;;;;;;69.32;17.15;;;;;;;;;;5012117;28;20554;-41
2023/05/15 01:53:53;;;;;;;62.72;16.90;;;;;;;;;;5011658;28;20105;-41
2023/05/15 01:56:21;;;;;;;69.78;17.13;;;;;;;;;;5008207;28;20029;-41
2023/05/15 01:58:49;;;;;;;62.55;15.32;;;;;;;;;;5006957;28;20034;-39
2023/05/15 02:01:17;;;;;;;68.57;17.70;;;;;;;;;;4991477;28;20030;-39
2023/05/15 02:03:45;;;;;;;66.70;16.27;;;;;;;;;;4996062;28;20062;-40
2023/05/15 02:06:12;;;;;;;63.50;16.52;;;;;;;;;;5011094;28;20092;-41
2023/05/15 02:08:41;;;;;;;80.55;17.25;;;;;;;;;;5011151;28;20399;-41
2023/05/15 02:11:08;;;;;;;63.00;15.63;;;;;;;;;;5007195;28;20057;-42
2023/05/15 02:13:35;;;;;;;79.32;17.08;;;;;;;;;;4990028;28;20037;-42
2023/05/15 02:16:02;;;;;;;69.20;15.82;;;;;;;;;;4994278;28;20058;-39
2023/05/15 02:18:29;;;;;;;71.63;17.00;;;;;;;;;;5003026;28;20496;-40
2023/05/15 02:20:57;;;;;;;62.38;15.68;;;;;;;;;;5011483;28;20088;-42
2023/05/15 02:23:24;;;;;;;66.97;16.05;;;;;;;;;;5011356;28;20476;-42
2023/05/15 02:26:06;;;;;;;58.97;13.60;;;;;;;;;;5011080;28;20037;-44
2023/05/15 02:28:42;;;;;;;50.67;13.82;;;;;;;;;;5008510;28;20063;-44
2023/05/15 02:31:17;;;;;;;70.38;14.43;;;;;;;;;;5011200;28;20349;-40
2023/05/15 02:33:53;;;;;;;54.00;13.85;;;;;;;;;;5011046;28;20116;-43
2023/05/15 02:36:21;;;;;;;53.05;14.23;;;;;;;;;;5009039;28;20022;-42
2023/05/15 02:38:49;;;;;;;50.33;13.13;;;;;;;;;;5010405;28;20045;-42
2023/05/15 02:41:16;;;;;;;55.20;13.73;;;;;;;;;;5011108;28;20041;-40
2023/05/15 02:43:44;;;;;;;49.92;12.30;;;;;;;;;;5010634;28;20037;-42
2023/05/15 02:46:13;;;;;;;45.45;12.55;;;;;;;;;;5009422;28;20387;-42
2023/05/15 02:48:41;;;;;;;40.67;12.20;;;;;;;;;;5009825;28;20017;-40
2023/05/15 02:51:08;;;;;;;41.33;12.02;;;;;;;;;;5010905;28;20022;-40
2023/05/15 02:53:44;;;;;;;39.22;12.55;;;;;;;;;;5008411;28;20128;-42
2023/05/15 02:56:11;;;;;;;48.88;12.48;;;;;;;;;;5010708;28;20430;-42
2023/05/15 02:58:39;;;;;;;40.28;11.32;;;;;;;;;;5010507;28;20046;-40
2023/05/15 03:01:06;;;;;;;45.85;11.35;;;;;;;;;;5009847;28;20040;-40
2023/05/15 03:03:33;;;;;;;46.10;10.88;;;;;;;;;;5009321;28;20049;-42
2023/05/15 03:06:00;;;;;;;40.28;11.10;;;;;;;;;;5011070;28;20033;-42
2023/05/15 03:08:27;;;;;;;38.53;11.32;;;;;;;;;;5011290;28;20709;-43
2023/05/15 03:10:54;;;;;;;38.95;10.90;;;;;;;;;;5011306;28;20041;-41
2023/05/15 03:13:21;;;;;;;32.00;11.00;;;;;;;;;;5011416;28;20044;-42
2023/05/15 03:15:48;;;;;;;38.28;10.70;;;;;;;;;;5011436;28;20031;-42
2023/05/15 03:18:17;;;;;;;32.42;11.02;;;;;;;;;;5011441;28;20068;-42
2023/05/15 03:20:44;;;;;;;42.13;11.98;;;;;;;;;;5011119;28;20109;-43
2023/05/15 03:23:11;;;;;;;34.83;10.15;;;;;;;;;;5011238;28;20022;-42
2023/05/15 03:25:38;;;;;;;27.83;9.65;;;;;;;;;;5011331;28;20030;-44
2023/05/15 03:28:05;;;;;;;31.77;9.50;;;;;;;;;;5011140;28;20457;-43
2023/05/15 03:30:32;;;;;;;33.65;9.98;;;;;;;;;;5011406;28;20033;-42
2023/05/15 03:33:02;;;;;;;29.27;9.98;;;;;;;;;;5010954;28;20061;-42
2023/05/15 03:35:31;;;;;;;29.35;9.13;;;;;;;;;;5011107;28;20030;-42
2023/05/15 03:37:58;;;;;;;27.73;9.45;;;;;;;;;;5013145;28;20041;-42
2023/05/15 03:40:25;;;;;;;30.30;9.77;;;;;;;;;;5014844;28;20105;-42
2023/05/15 03:42:52;;;;;;;33.00;9.90;;;;;;;;;;5014847;28;20066;-41
2023/05/15 03:45:19;;;;;;;33.50;9.48;;;;;;;;;;5014424;28;20018;-42
2023/05/15 03:47:47;;;;;;;29.45;8.48;;;;;;;;;;5014549;28;20398;-43
2023/05/15 03:50:14;;;;;;;29.35;8.30;;;;;;;;;;5014660;28;20101;-43
2023/05/15 03:52:41;;;;;;;26.98;8.65;;;;;;;;;;5014447;28;20018;-43
2023/05/15 03:55:08;;;;;;;30.40;8.70;;;;;;;;;;5014354;28;20018;-45
2023/05/15 03:57:35;;;;;;;30.13;8.45;;;;;;;;;;5014370;28;20044;-43
2023/05/15 04:00:08;;;;;;;30.05;8.77;;;;;;;;;;5014355;28;20025;-43
2023/05/15 04:02:35;;;;;;;24.20;8.63;;;;;;;;;;5014172;28;20069;-44
2023/05/15 04:05:03;;;;;;;27.42;8.82;;;;;;;;;;5014166;28;20120;-44
2023/05/15 04:07:31;;;;;;;27.92;7.55;;;;;;;;;;5014100;28;20026;-43
2023/05/15 04:10:01;;;;;;;25.25;8.10;;;;;;;;;;5014189;28;20438;-43
2023/05/15 04:12:32;;;;;;;23.85;7.93;;;;;;;;;;5014149;28;20357;-43
2023/05/15 04:15:13;;;;;;;27.15;8.18;;;;;;;;;;5014142;28;20033;-43
2023/05/15 04:17:40;;;;;;;30.98;8.27;;;;;;;;;;5013878;28;20109;-43
2023/05/15 04:20:07;;;;;;;23.55;7.80;;;;;;;;;;5014036;28;20439;-43
2023/05/15 04:22:34;;;;;;;21.67;7.00;;;;;;;;;;5013786;28;20064;-43
2023/05/15 04:25:01;;;;;;;23.75;7.05;;;;;;;;;;5013919;28;20026;-43
2023/05/15 04:27:28;;;;;;;25.65;7.25;;;;;;;;;;5013757;28;20431;-43
2023/05/15 04:29:55;;;;;;;21.65;6.82;;;;;;;;;;5013868;28;20481;-44
2023/05/15 04:32:22;;;;;;;18.23;6.50;;;;;;;;;;5013790;28;20383;-43
2023/05/15 04:34:49;;;;;;;23.58;7.47;;;;;;;;;;5013649;28;20101;-43
2023/05/15 04:37:16;;;;;;;25.88;7.40;;;;;;;;;;5013543;28;20391;-43
2023/05/15 04:39:43;;;;;;;18.17;6.47;;;;;;;;;;5013720;28;20092;-44
2023/05/15 04:42:10;;;;;;;22.23;7.40;;;;;;;;;;4995771;28;20033;-42
2023/05/15 04:44:37;;;;;;;22.25;6.85;;;;;;;;;;5013479;28;20022;-44
2023/05/15 04:47:04;;;;;;;19.55;6.45;;;;;;;;;;5013572;28;20022;-43
2023/05/15 04:49:31;;;;;;;23.45;6.70;;;;;;;;;;5013148;28;20029;-44
2023/05/15 04:51:58;;;;;;;18.15;6.68;;;;;;;;;;5013447;28;20068;-43
2023/05/15 04:54:25;;;;;;;22.83;6.80;;;;;;;;;;5013373;28;20029;-43
2023/05/15 04:56:52;;;;;;;16.88;5.88;;;;;;;;;;5013254;28;20439;-43
2023/05/15 04:59:19;;;;;;;19.00;6.05;;;;;;;;;;5013260;28;20030;-43
2023/05/15 05:01:46;;;;;;;16.92;6.07;;;;;;;;;;5013023;28;20487;-43
2023/05/15 05:04:13;;;;;;;19.45;6.55;;;;;;;;;;5012951;28;20056;-43
2023/05/15 05:06:40;;;;;;;19.70;6.93;;;;;;;;;;5013200;28;20048;-43
2023/05/15 05:09:07;;;;;;;14.65;5.53;;;;;;;;;;5013128;28;20025;-43
2023/05/15 05:11:34;;;;;;;16.73;6.15;;;;;;;;;;5012963;28;20050;-42
2023/05/15 05:14:02;;;;;;;18.75;6.10;;;;;;;;;;5012858;28;20030;-43
2023/05/15 05:16:29;;;;;;;15.52;5.20;;;;;;;;;;5012991;28;20386;-43
2023/05/15 05:18:56;;;;;;;15.88;6.10;;;;;;;;;;5012667;28;20399;-43
2023/05/15 05:21:23;;;;;;;16.25;5.35;;;;;;;;;;5012887;28;20391;-43
2023/05/15 05:23:50;;;;;;;16.13;6.20;;;;;;;;;;5012748;28;20036;-43
2023/05/15 05:26:17;;;;;;;20.92;6.15;;;;;;;;;;5012915;28;20060;-43
2023/05/15 05:28:44;;;;;;;18.67;5.45;;;;;;;;;;5012649;28;20026;-43
2023/05/15 05:31:11;;;;;;;15.43;6.03;;;;;;;;;;4994968;28;20438;-43
2023/05/15 05:33:38;;;;;;;13.02;5.40;;;;;;;;;;4995254;28;20084;-43
2023/05/15 05:36:05;;;;;;;14.40;5.50;;;;;;;;;;5012685;28;20026;-43
2023/05/15 05:38:32;;;;;;;16.30;5.53;;;;;;;;;;5012404;28;20026;-43
2023/05/15 05:41:00;;;;;;;15.70;5.38;;;;;;;;;;5012438;28;20373;-43
2023/05/15 05:43:27;;;;;;;10.85;5.10;;;;;;;;;;5012389;28;20108;-43
2023/05/15 05:45:54;;;;;;;14.48;5.22;;;;;;;;;;5012336;28;20434;-43
2023/05/15 05:48:21;;;;;;;17.33;5.70;;;;;;;;;;5012505;28;20083;-43
2023/05/15 05:50:48;;;;;;;16.48;5.45;;;;;;;;;;4994698;28;20474;-44
2023/05/15 05:53:15;;;;;;;12.75;5.03;;;;;;;;;;5012136;28;20022;-43
2023/05/15 05:55:42;;;;;;;13.75;4.95;;;;;;;;;;5012344;28;20022;-43
2023/05/15 05:58:09;;;;;;;12.13;5.05;;;;;;;;;;5012194;28;20796;-43
2023/05/15 06:00:36;;;;;;;11.70;4.65;;;;;;;;;;5011680;28;20032;-43
2023/05/15 06:03:03;;;;;;;14.45;5.05;;;;;;;;;;5010449;28;20044;-43
2023/05/15 06:05:30;;;;;;;12.95;4.93;;;;;;;;;;5012018;28;20026;-43
2023/05/15 06:07:58;;;;;;;13.13;4.45;;;;;;;;;;5012085;28;20431;-43
2023/05/15 06:10:25;;;;;;;12.95;4.80;;;;;;;;;;5012083;28;20033;-43
2023/05/15 06:12:52;;;;;;;13.18;4.30;;;;;;;;;;5011844;28;20026;-43
2023/05/15 06:15:19;;;;;;;16.00;5.18;;;;;;;;;;5012093;28;20032;-43
2023/05/15 06:17:46;;;;;;;13.85;4.68;;;;;;;;;;5011953;28;20033;-43
2023/05/15 06:20:13;;;;;;;14.80;4.78;;;;;;;;;;5011966;28;20026;-43
2023/05/15 06:22:40;;;;;;;11.68;4.40;;;;;;;;;;5011569;28;20041;-41
2023/05/15 06:25:12;;;;;;;11.95;4.47;;;;;;;;;;5011720;28;20084;-41
2023/05/15 06:27:40;;;;;;;10.05;4.15;;;;;;;;;;5011797;28;20038;-42
2023/05/15 06:30:09;;;;;;;15.93;4.68;;;;;;;;;;5011783;28;20038;-41
2023/05/15 06:32:36;;;;;;;10.60;4.25;;;;;;;;;;5003797;28;20030;-41
2023/05/15 06:35:03;;;;;;;10.93;4.15;;;;;;;;;;5011561;28;20036;-41
2023/05/15 06:37:30;;;;;;;11.57;4.43;;;;;;;;;;5011766;28;20369;-41
2023/05/15 06:39:57;;;;;;;11.20;4.65;;;;;;;;;;5011771;28;20045;-43
2023/05/15 06:42:24;;;;;;;14.57;4.65;;;;;;;;;;5011614;28;20033;-41
2023/05/15 06:44:51;;;;;;;13.45;4.55;;;;;;;;;;5011548;28;20022;-42
2023/05/15 06:47:18;;;;;;;8.40;3.45;;;;;;;;;;5011768;28;20047;-41
2023/05/15 06:49:45;;;;;;;12.68;4.45;;;;;;;;;;5011754;28;20438;-41
2023/05/15 06:52:12;;;;;;;14.25;4.43;;;;;;;;;;5011579;28;20468;-41
2023/05/15 06:54:42;;;;;;;13.27;4.47;;;;;;;;;;5011384;28;20132;-41
2023/05/15 06:57:09;;;;;;;9.40;4.28;;;;;;;;;;5011463;28;20496;-41
2023/05/15 06:59:36;;;;;;;9.38;4.00;;;;;;;;;;5011558;28;20026;-41
2023/05/15 07:02:03;;;;;;;11.13;3.92;;;;;;;;;;5011615;28;20018;-41
2023/05/15 07:04:30;;;;;;;12.65;4.05;;;;;;;;;;5011224;28;20050;-42
2023/05/15 07:06:57;;;;;;;12.15;4.38;;;;;;;;;;5011510;28;20026;-42
2023/05/15 07:09:25;;;;;;;10.18;4.10;;;;;;;;;;5011219;28;20072;-41
2023/05/15 07:11:52;;;;;;;8.88;3.65;;;;;;;;;;5011861;28;20439;-41
2023/05/15 07:14:19;;;;;;;9.30;3.40;;;;;;;;;;5015266;28;20048;-42
2023/05/15 07:16:46;;;;;;;9.00;3.90;;;;;;;;;;5015272;28;20057;-41
2023/05/15 07:19:13;;;;;;;11.05;3.80;;;;;;;;;;5015188;28;20026;-41
2023/05/15 07:21:40;;;;;;;7.95;3.72;;;;;;;;;;5015057;28;20033;-41
2023/05/15 07:24:07;;;;;;;9.77;3.50;;;;;;;;;;5014862;28;20051;-41
2023/05/15 07:26:34;;;;;;;10.35;3.63;;;;;;;;;;5015074;28;20502;-41
2023/05/15 07:29:01;;;;;;;7.20;3.38;;;;;;;;;;5015028;28;20030;-41
2023/05/15 07:31:27;;;;;;;11.30;3.70;;;;;;;;;;5014916;28;20403;-41
2023/05/15 07:33:54;;;;;;;7.70;3.72;;;;;;;;;;5014666;28;20281;-41
2023/05/15 07:36:21;;;;;;;8.55;3.33;;;;;;;;;;5015183;28;20033;-41
2023/05/15 07:38:48;;;;;;;9.80;4.30;;;;;;;;;;5014623;28;20435;-42
2023/05/15 07:41:15;;;;;;;13.82;4.03;;;;;;;;;;5014720;28;20061;-41
2023/05/15 07:43:42;;;;;;;7.72;3.33;;;;;;;;;;5014514;28;20026;-41
2023/05/15 07:46:10;;;;;;;7.13;3.35;;;;;;;;;;5014538;28;20026;-41
2023/05/15 07:48:37;;;;;;;9.00;3.70;;;;;;;;;;5014582;28;20030;-41
2023/05/15 07:51:04;;;;;;;16.55;3.47;;;;;;;;;;5014334;28;20361;-41
2023/05/15 07:53:32;;;;;;;6.47;3.30;;;;;;;;;;5014575;28;20025;-41
2023/05/15 07:55:59;;;;;;;10.10;3.65;;;;;;;;;;5014368;28;20030;-41
2023/05/15 07:58:27;;;;;;;8.10;3.55;;;;;;;;;;5014438;28;20112;-41
2023/05/15 08:00:54;;;;;;;9.38;3.38;;;;;;;;;;5014094;28;20045;-41
2023/05/15 08:03:21;;;;;;;9.63;3.40;;;;;;;;;;5014125;28;20030;-41
2023/05/15 08:05:48;;;;;;;7.80;3.47;;;;;;;;;;5014386;28;20096;-41
2023/05/15 08:08:15;;;;;;;7.57;3.20;;;;;;;;;;5014269;28;20561;-41
2023/05/15 08:10:42;;;;;;;6.10;3.00;;;;;;;;;;5014128;28;20033;-41
2023/05/15 08:13:09;;;;;;;8.13;3.13;;;;;;;;;;5013982;28;20033;-41
2023/05/15 08:15:36;;;;;;;9.55;3.53;;;;;;;;;;5014097;28;20476;-41
2023/05/15 08:18:08;;;;;;;7.43;2.88;;;;;;;;;;5013832;28;20180;-41
2023/05/15 08:20:35;;;;;;;8.48;2.90;;;;;;;;;;5014002;28;20030;-41
2023/05/15 08:23:02;;;;;;;7.35;2.83;;;;;;;;;;5013385;28;20105;-41
2023/05/15 08:25:29;;;;;;;10.48;3.42;;;;;;;;;;5013951;28;20030;-41
2023/05/15 08:27:56;;;;;;;6.47;2.88;;;;;;;;;;5013917;28;20032;-41
2023/05/15 08:30:23;;;;;;;9.00;3.10;;;;;;;;;;5013661;28;20388;-41
2023/05/15 08:32:50;;;;;;;5.70;2.55;;;;;;;;;;5013759;28;20076;-41
2023/05/15 08:35:17;;;;;;;8.52;2.83;;;;;;;;;;5013957;28;20028;-41
2023/05/15 08:37:44;;;;;;;5.13;2.80;;;;;;;;;;5013598;28;20088;-41
2023/05/15 08:40:12;;;;;;;6.80;2.83;;;;;;;;;;5013343;28;20026;-41
2023/05/15 08:43:05;;;;;;;7.13;2.90;;;;;;;;;;5013568;28;20024;-41
2023/05/15 08:45:33;;;;;;;6.57;2.65;;;;;;;;;;5011203;28;20042;-41
2023/05/15 08:48:00;;;;;;;6.25;2.90;;;;;;;;;;5013361;28;20434;-41
2023/05/15 08:50:28;;;;;;;6.25;2.88;;;;;;;;;;5013313;28;20026;-43
2023/05/15 08:52:57;;;;;;;6.30;2.80;;;;;;;;;;5013224;28;20057;-41
2023/05/15 08:55:24;;;;;;;6.28;3.03;;;;;;;;;;5013399;28;20380;-41
2023/05/15 08:57:51;;;;;;;8.68;3.17;;;;;;;;;;5013104;28;20030;-41
2023/05/15 09:00:19;;;;;;;8.25;2.90;;;;;;;;;;5013175;28;20018;-41
2023/05/15 09:02:47;;;;;;;6.80;2.78;;;;;;;;;;5013393;28;20040;-41
2023/05/15 09:05:14;;;;;;;7.18;2.50;;;;;;;;;;5013077;28;20140;-41
2023/05/15 09:07:43;;;;;;;4.90;2.40;;;;;;;;;;5013251;28;20419;-43
2023/05/15 09:10:10;;;;;;;9.57;2.80;;;;;;;;;;5012829;28;20033;-41
2023/05/15 09:12:41;;;;;;;9.02;2.70;;;;;;;;;;5012889;28;20026;-43
2023/05/15 09:15:12;;;;;;;4.93;2.45;;;;;;;;;;5012929;28;20778;-41
2023/05/15 09:17:41;;;;;;;5.70;2.50;;;;;;;;;;5012915;28;20022;-41
2023/05/15 09:20:25;;;;;;;5.40;2.67;;;;;;;;;;5013078;28;20037;-41
2023/05/15 09:22:52;;;;;;;5.68;2.45;;;;;;;;;;4995065;28;20388;-41
2023/05/15 09:25:37;;;;;;;6.97;2.90;;;;;;;;;;5012809;28;20064;-41
2023/05/15 09:28:06;;;;;;;4.93;2.53;;;;;;;;;;5012472;28;20068;-44
2023/05/15 09:30:33;;;;;;;5.55;2.33;;;;;;;;;;5012780;28;20022;-43
2023/05/15 09:33:04;;;;;;;8.40;2.80;;;;;;;;;;5012223;28;20100;-43
2023/05/15 09:35:32;;;;;;;5.93;2.65;;;;;;;;;;5011744;28;20024;-44
2023/05/15 09:37:59;;;;;;;5.75;2.42;;;;;;;;;;5012662;28;20036;-44
2023/05/15 09:40:30;;;;;;;7.22;2.50;;;;;;;;;;5012531;28;20018;-43
2023/05/15 09:42:57;;;;;;;5.47;2.42;;;;;;;;;;5012427;28;20030;-43
2023/05/15 09:45:28;;;;;;;4.68;2.35;;;;;;;;;;5012240;28;20097;-43
2023/05/15 09:47:56;;;;;;;5.60;2.40;;;;;;;;;;5012432;28;20026;-43
2023/05/15 09:50:24;;;;;;;5.25;2.33;;;;;;;;;;5012379;28;20069;-43
2023/05/15 09:52:51;;;;;;;7.05;2.45;;;;;;;;;;5012123;28;20053;-43
2023/05/15 09:55:22;;;;;;;6.22;2.30;;;;;;;;;;5012356;28;20448;-44
2023/05/15 09:58:05;;;;;;;5.97;2.60;;;;;;;;;;5012164;28;20062;-44
2023/05/15 10:00:33;;;;;;;7.18;2.50;;;;;;;;;;5012298;28;20041;-43
2023/05/15 10:03:03;;;;;;;7.03;2.67;;;;;;;;;;5011900;28;20037;-41
2023/05/15 10:05:30;;;;;;;6.13;2.10;;;;;;;;;;5012212;28;20030;-41
2023/05/15 10:07:58;;;;;;;5.32;2.10;;;;;;;;;;5012126;28;20029;-41
2023/05/15 10:10:25;;;;;;;6.43;2.45;;;;;;;;;;5011882;28;20570;-41
2023/05/15 10:12:53;;;;;;;4.97;2.20;;;;;;;;;;5011763;28;20084;-41
2023/05/15 10:15:20;;;;;;;4.57;2.03;;;;;;;;;;5012069;28;20024;-41
2023/05/15 10:17:48;;;;;;;5.47;2.30;;;;;;;;;;5011998;28;20034;-41
2023/05/15 10:20:19;;;;;;;6.97;2.30;;;;;;;;;;5011918;28;20018;-43
2023/05/15 10:22:49;;;;;;;7.72;2.13;;;;;;;;;;5011928;28;20029;-41
2023/05/15 10:25:33;;;;;;;7.22;2.38;;;;;;;;;;5011622;28;20030;-41
2023/05/15 10:28:00;;;;;;;7.25;2.35;;;;;;;;;;5011976;28;20453;-41
2023/05/15 10:30:28;;;;;;;5.38;2.30;;;;;;;;;;5011854;28;20026;-41
2023/05/15 10:32:56;;;;;;;5.00;2.17;;;;;;;;;;5011675;28;20455;-41
2023/05/15 10:35:23;;;;;;;4.65;2.00;;;;;;;;;;5011580;28;20475;-41
2023/05/15 10:37:50;;;;;;;7.18;2.25;;;;;;;;;;5011738;28;20060;-41
2023/05/15 10:40:17;;;;;;;7.82;2.40;;;;;;;;;;5011694;28;20476;-41
2023/05/15 10:42:46;;;;;;;4.93;2.10;;;;;;;;;;5011651;28;20468;-41
2023/05/15 10:45:13;;;;;;;6.20;2.30;;;;;;;;;;5011497;28;20022;-41
2023/05/15 10:47:41;;;;;;;5.45;2.10;;;;;;;;;;5015288;28;20018;-42
2023/05/15 10:50:08;;;;;;;5.50;2.15;;;;;;;;;;5015560;28;20029;-41
2023/05/15 10:52:39;;;;;;;5.70;2.20;;;;;;;;;;5015578;28;20033;-41
2023/05/15 10:55:07;;;;;;;6.82;2.20;;;;;;;;;;5015562;28;20133;-41
2023/05/15 10:57:34;;;;;;;6.25;2.20;;;;;;;;;;5015495;28;20026;-41
2023/05/15 11:00:04;;;;;;;5.68;2.00;;;;;;;;;;5015365;28;20034;-41
2023/05/15 11:02:38;;;;;;;8.63;2.67;;;;;;;;;;5014995;28;20034;-41
2023/05/15 11:05:05;;;;;;;5.88;2.20;;;;;;;;;;5015154;28;20050;-41
2023/05/15 11:07:32;;;;;;;7.28;2.58;;;;;;;;;;5015203;28;20479;-41
2023/05/15 11:09:59;;;;;;;9.05;2.30;;;;;;;;;;5015253;28;20422;-40
2023/05/15 11:12:46;;;;;;;7.50;2.35;;;;;;;;;;5015144;28;20694;-41
2023/05/15 11:15:13;;;;;;;5.88;2.40;;;;;;;;;;5009223;28;20026;-41
2023/05/15 11:18:00;;;;;;;10.05;2.03;;;;;;;;;;5015031;28;20018;-41
2023/05/15 11:20:33;;;;;;;11.20;2.85;;;;;;;;;;5014268;28;20152;-43
2023/05/15 11:23:00;;;;;;;11.15;2.72;;;;;;;;;;5014109;28;20069;-43
2023/05/15 11:25:31;;;;;;;8.93;2.58;;;;;;;;;;4996823;28;20476;-44
2023/05/15 11:27:58;;;;;;;10.75;2.40;;;;;;;;;;5013940;28;20084;-43
2023/05/15 11:30:42;;;;;;;9.38;2.40;;;;;;;;;;5013741;28;20038;-43
2023/05/15 11:33:13;;;;;;;6.60;2.28;;;;;;;;;;5014535;28;20108;-41
2023/05/15 11:35:42;;;;;;;7.93;2.78;;;;;;;;;;5009251;28;20080;-40
2023/05/15 11:38:16;;;;;;;15.43;3.45;;;;;;;;;;5013774;28;20042;-47
2023/05/15 11:40:46;;;;;;;14.98;3.00;;;;;;;;;;5013100;28;20037;-41
2023/05/15 11:43:31;;;;;;;17.20;3.03;;;;;;;;;;5013329;28;20060;-41
2023/05/15 11:46:07;;;;;;;16.42;3.70;;;;;;;;;;5014159;28;20032;-40
2023/05/15 11:48:35;;;;;;;16.05;3.47;;;;;;;;;;5013813;28;20028;-40
2023/05/15 11:51:03;;;;;;;23.70;4.00;;;;;;;;;;5009526;28;20488;-40
2023/05/15 11:53:30;;;;;;;24.02;3.63;;;;;;;;;;5013948;28;20104;-45
2023/05/15 11:55:57;;;;;;;16.15;3.60;;;;;;;;;;5013955;28;20029;-39
2023/05/15 11:58:25;;;;;;;16.25;3.05;;;;;;;;;;5012723;28;20030;-39
2023/05/15 12:00:53;;;;;;;14.05;3.17;;;;;;;;;;5011525;28;20080;-43
2023/05/15 12:03:28;;;;;;;20.35;3.40;;;;;;;;;;5011787;28;20046;-41
2023/05/15 12:05:55;;;;;;;12.23;3.10;;;;;;;;;;5012730;28;20032;-42
2023/05/15 12:08:22;;;;;;;15.63;3.60;;;;;;;;;;5012526;28;20439;-39
2023/05/15 12:10:49;;;;;;;15.57;3.17;;;;;;;;;;5011103;28;20030;-43
2023/05/15 12:13:18;;;;;;;11.27;3.20;;;;;;;;;;5012151;28;20057;-42
2023/05/15 12:15:45;;;;;;;11.45;3.35;;;;;;;;;;5013115;28;20088;-40
2023/05/15 12:18:13;;;;;;;11.60;3.80;;;;;;;;;;5012853;28;20056;-42
2023/05/15 12:20:48;;;;;;;11.88;3.33;;;;;;;;;;5013474;28;20061;-43
2023/05/15 12:23:16;;;;;;;11.48;2.92;;;;;;;;;;5012361;28;20108;-41
2023/05/15 12:25:44;;;;;;;11.82;3.95;;;;;;;;;;5011065;28;20084;-41
2023/05/15 12:28:11;;;;;;;12.68;3.20;;;;;;;;;;5000130;28;20036;-39
2023/05/15 12:30:39;;;;;;;11.98;3.47;;;;;;;;;;5012621;28;20030;-39
2023/05/15 12:33:07;;;;;;;16.13;3.60;;;;;;;;;;5011394;28;20100;-41
2023/05/15 12:35:35;;;;;;;14.73;3.63;;;;;;;;;;5013844;28;20064;-39
2023/05/15 12:38:05;;;;;;;21.95;3.72;;;;;;;;;;5012953;28;20038;-40
2023/05/15 12:40:38;;;;;;;14.73;3.47;;;;;;;;;;4993821;28;20046;-40
2023/05/15 12:43:06;;;;;;;18.88;3.45;;;;;;;;;;4990989;28;20119;-39
2023/05/15 12:45:35;;;;;;;15.85;3.60;;;;;;;;;;5012140;28;20741;-40
2023/05/15 12:48:02;;;;;;;15.85;4.00;;;;;;;;;;5012899;28;20037;-39
2023/05/15 12:50:32;;;;;;;15.35;4.18;;;;;;;;;;5012934;28;20053;-41
2023/05/15 12:53:03;;;;;;;20.55;6.53;;;;;;;;;;5010875;28;20064;-41
2023/05/15 12:55:31;;;;;;;52.33;29.52;;;;;;;;;;5011087;28;20029;-41
2023/05/15 12:58:00;;;;;;;71.88;48.58;;;;;;;;;;5012351;28;20025;-41
2023/05/15 13:00:33;;;;;;;81.90;50.72;;;;;;;;;;5012242;28;20082;-38
2023/05/15 13:03:00;;;;;;;35.05;17.65;;;;;;;;;;5011036;28;20514;-40
2023/05/15 13:05:28;;;;;;;20.90;8.80;;;;;;;;;;5010244;28;20491;-39
2023/05/15 13:07:57;;;;;;;35.08;15.65;;;;;;;;;;5010545;28;20495;-39
2023/05/15 13:10:25;;;;;;;27.23;15.73;;;;;;;;;;5009973;28;20030;-39
2023/05/15 13:12:53;;;;;;;42.35;22.38;;;;;;;;;;5010659;28;20376;-39
2023/05/15 13:15:28;;;;;;;45.17;24.17;;;;;;;;;;5008209;28;20159;-41
2023/05/15 13:17:55;;;;;;;47.10;22.17;;;;;;;;;;5008660;28;20093;-40
2023/05/15 13:20:23;;;;;;;46.90;23.02;;;;;;;;;;5009533;28;20507;-42
2023/05/15 13:22:50;;;;;;;48.58;26.05;;;;;;;;;;5009027;28;20824;-42
2023/05/15 13:25:20;;;;;;;49.83;25.05;;;;;;;;;;5006338;28;20045;-42
2023/05/15 13:27:47;;;;;;;47.78;25.75;;;;;;;;;;5008590;28;20018;-40
2023/05/15 13:30:18;;;;;;;46.67;27.17;;;;;;;;;;5009417;28;20095;-42
2023/05/15 13:32:45;;;;;;;44.67;26.13;;;;;;;;;;5008157;28;20037;-41
2023/05/15 13:35:12;;;;;;;50.88;27.13;;;;;;;;;;5005125;28;20091;-40
2023/05/15 13:37:39;;;;;;;51.53;26.85;;;;;;;;;;5009702;28;20022;-41
2023/05/15 13:40:11;;;;;;;58.97;27.73;;;;;;;;;;5010568;28;20033;-39
2023/05/15 13:42:39;;;;;;;54.97;26.40;;;;;;;;;;5009244;28;20132;-40
2023/05/15 13:45:07;;;;;;;54.42;26.25;;;;;;;;;;5009612;28;20037;-39
2023/05/15 13:47:34;;;;;;;48.78;25.33;;;;;;;;;;5008560;28;20022;-43
2023/05/15 13:50:02;;;;;;;54.08;26.50;;;;;;;;;;5009468;28;20515;-42
2023/05/15 13:52:30;;;;;;;38.40;20.17;;;;;;;;;;5009440;28;20384;-41
2023/05/15 13:54:57;;;;;;;49.22;26.40;;;;;;;;;;5009915;28;20037;-41
2023/05/15 13:57:24;;;;;;;46.20;25.33;;;;;;;;;;5008206;28;20022;-39
2023/05/15 13:59:51;;;;;;;38.97;23.27;;;;;;;;;;5009687;28;20441;-38
2023/05/15 14:02:19;;;;;;;41.30;24.15;;;;;;;;;;5009667;28;20022;-43
2023/05/15 14:04:46;;;;;;;45.25;23.75;;;;;;;;;;5008841;28;20519;-40
2023/05/15 14:07:13;;;;;;;36.47;23.13;;;;;;;;;;5009993;28;20372;-40
2023/05/15 14:09:40;;;;;;;43.20;24.40;;;;;;;;;;5006846;28;20376;-42
2023/05/15 14:12:08;;;;;;;43.17;23.20;;;;;;;;;;5007794;28;20513;-42
2023/05/15 14:14:35;;;;;;;44.35;21.90;;;;;;;;;;5009453;28;20040;-40
2023/05/15 14:17:02;;;;;;;47.90;21.65;;;;;;;;;;5010595;28;20096;-40
2023/05/15 14:19:29;;;;;;;43.85;21.77;;;;;;;;;;5009311;28;20491;-39
2023/05/15 14:21:56;;;;;;;39.30;21.65;;;;;;;;;;5010630;28;20589;-39
2023/05/15 14:24:23;;;;;;;38.60;20.35;;;;;;;;;;5011112;28;20357;-40
2023/05/15 14:26:50;;;;;;;34.80;19.48;;;;;;;;;;5010642;28;20472;-40
2023/05/15 14:29:17;;;;;;;41.65;19.92;;;;;;;;;;5009216;28;20563;-40
2023/05/15 14:31:44;;;;;;;32.92;19.20;;;;;;;;;;5010929;28;20380;-40
2023/05/15 14:34:11;;;;;;;36.00;19.85;;;;;;;;;;5010840;28;20491;-39
2023/05/15 14:36:38;;;;;;;32.28;19.27;;;;;;;;;;5011007;28;20037;-40